createdAt,value
2018-11-21T01:40:13.715Z,18.85
2018-11-21T01:42:55.209Z,18.55
2018-11-21T01:45:36.612Z,18.67
2018-11-21T01:48:18.269Z,19.35
2018-11-21T01:50:59.704Z,18.50
2018-11-21T01:53:41.228Z,18.73
2018-11-21T01:56:22.657Z,19.40
2018-11-21T01:59:03.884Z,23.18
2018-11-21T02:01:45.204Z,21.62
2018-11-21T02:04:26.131Z,20.20
2018-11-21T02:07:07.590Z,20.68
2018-11-21T02:09:48.648Z,20.32
2018-11-21T02:12:30.318Z,20.40
2018-11-21T02:15:11.579Z,19.87
2018-11-21T02:17:52.994Z,20.68
2018-11-21T02:20:34.329Z,20.48
2018-11-21T02:23:15.266Z,20.75
2018-11-21T02:25:56.757Z,20.80
2018-11-21T02:28:38.143Z,22.13
2018-11-21T02:31:19.750Z,21.48
2018-11-21T02:34:01.309Z,23.40
2018-11-21T02:36:42.255Z,23.07
2018-11-21T02:39:23.532Z,23.77
2018-11-21T02:42:04.726Z,22.48
2018-11-21T02:44:46.068Z,21.45
2018-11-21T02:47:27.570Z,24.85
2018-11-21T02:50:08.315Z,22.65
2018-11-21T02:52:49.667Z,23.45
2018-11-21T02:55:30.911Z,25.68
2018-11-21T02:58:12.734Z,24.02
2018-11-21T03:00:53.885Z,22.37
2018-11-21T03:03:35.414Z,23.55
2018-11-21T03:06:16.320Z,23.32
2018-11-21T03:08:57.901Z,22.65
2018-11-21T03:11:38.934Z,22.60
2018-11-21T03:14:20.432Z,24.35
2018-11-21T03:17:01.540Z,23.22
2018-11-21T03:19:42.550Z,22.43
2018-11-21T03:22:23.781Z,22.03
2018-11-21T03:25:04.989Z,22.10
2018-11-21T03:27:46.228Z,21.85
2018-11-21T03:30:27.883Z,20.83
2018-11-21T03:33:09.637Z,21.02
2018-11-21T03:35:50.433Z,21.45
2018-11-21T03:38:32.063Z,21.60
2018-11-21T03:41:12.923Z,21.33
2018-11-21T03:43:54.393Z,21.77
2018-11-21T03:46:36.031Z,21.42
2018-11-21T03:49:17.954Z,21.75
2018-11-21T03:51:58.806Z,22.37
2018-11-21T03:54:40.110Z,21.52
2018-11-21T03:57:21.231Z,21.85
2018-11-21T04:00:02.776Z,22.23
2018-11-21T04:02:44.783Z,22.45
2018-11-21T04:05:25.781Z,22.20
2018-11-21T04:08:07.469Z,22.20
2018-11-21T04:10:48.897Z,23.22
2018-11-21T04:13:30.247Z,22.25
2018-11-21T04:16:11.856Z,22.85
2018-11-21T04:18:54.404Z,23.05
2018-11-21T04:21:35.782Z,22.93
2018-11-21T04:24:17.113Z,23.02
2018-11-21T04:26:58.740Z,22.33
2018-11-21T04:29:40.136Z,22.60
2018-11-21T04:32:21.318Z,22.67
2018-11-21T04:35:02.737Z,21.45
2018-11-21T04:37:44.368Z,22.55
2018-11-21T04:40:25.684Z,22.62
2018-11-21T04:43:06.795Z,22.80
2018-11-21T04:45:46.190Z,22.98
2018-11-21T04:48:34.589Z,22.90
2018-11-21T04:51:15.567Z,23.75
2018-11-21T04:53:56.907Z,23.07
2018-11-21T04:56:38.248Z,23.15
2018-11-21T04:59:19.399Z,24.25
2018-11-21T05:02:00.275Z,23.27
2018-11-21T05:04:41.935Z,23.87
2018-11-21T05:07:23.271Z,23.60
2018-11-21T05:10:04.845Z,24.00
2018-11-21T05:12:46.036Z,23.83
2018-11-21T05:15:27.085Z,24.90
2018-11-21T05:18:08.276Z,25.95
2018-11-21T05:20:49.548Z,25.57
2018-11-21T05:23:31.099Z,24.45
2018-11-21T05:26:12.507Z,24.70
2018-11-21T05:28:54.181Z,25.12
2018-11-21T05:31:35.542Z,25.77
2018-11-21T05:34:16.872Z,25.72
2018-11-21T05:36:58.411Z,26.07
2018-11-21T05:39:39.376Z,25.97
2018-11-21T05:42:21.104Z,26.12
2018-11-21T05:45:02.187Z,25.30
2018-11-21T05:47:50.998Z,24.65
2018-11-21T05:50:39.647Z,25.10
2018-11-21T05:53:20.834Z,24.60
2018-11-21T05:56:02.326Z,23.85
2018-11-21T05:58:43.787Z,25.37
2018-11-21T06:01:25.581Z,26.10
2018-11-21T06:04:06.819Z,24.93
2018-11-21T06:06:48.375Z,25.20
2018-11-21T06:09:29.888Z,24.75
2018-11-21T06:12:11.694Z,25.88
2018-11-21T06:14:52.811Z,24.45
2018-11-21T06:17:34.259Z,24.33
2018-11-21T06:20:16.083Z,24.52
2018-11-21T06:22:57.412Z,24.55
2018-11-21T06:25:38.313Z,26.00
2018-11-21T06:28:19.830Z,24.73
2018-11-21T06:31:01.361Z,23.98
2018-11-21T06:33:42.773Z,25.17
2018-11-21T06:36:24.353Z,25.68
2018-11-21T06:39:05.955Z,25.27
2018-11-21T06:41:47.302Z,25.48
2018-11-21T06:44:28.647Z,26.12
2018-11-21T06:47:10.313Z,25.40
2018-11-21T06:49:51.817Z,25.62
2018-11-21T06:52:33.077Z,25.45
2018-11-21T06:55:14.778Z,27.05
2018-11-21T06:57:55.844Z,24.17
2018-11-21T07:00:37.450Z,26.30
2018-11-21T07:03:19.226Z,26.63
2018-11-21T07:06:00.638Z,27.65
2018-11-21T07:08:41.599Z,27.48
2018-11-21T07:11:23.187Z,25.85
2018-11-21T07:14:07.188Z,25.48
2018-11-21T07:16:46.390Z,27.22
2018-11-21T07:19:28.112Z,25.43
2018-11-21T07:22:09.403Z,25.62
2018-11-21T07:24:50.370Z,25.70
2018-11-21T07:27:32.055Z,25.82
2018-11-21T07:30:14.632Z,27.53
2018-11-21T07:32:56.115Z,27.22
2018-11-21T07:35:37.471Z,27.27
2018-11-21T07:38:18.366Z,27.40
2018-11-21T07:41:00.463Z,27.15
2018-11-21T07:43:41.625Z,26.83
2018-11-21T07:46:22.426Z,27.30
2018-11-21T07:49:03.943Z,26.35
2018-11-21T07:51:44.870Z,27.00
2018-11-21T07:54:26.232Z,27.20
2018-11-21T07:57:07.590Z,28.23
2018-11-21T07:59:54.453Z,26.87
2018-11-21T08:02:35.373Z,26.75
2018-11-21T08:05:21.025Z,26.17
2018-11-21T08:08:16.185Z,25.00
2018-11-21T08:11:16.526Z,23.70
2018-11-21T08:14:16.854Z,23.57
2018-11-21T08:17:17.640Z,22.70
2018-11-21T08:20:18.160Z,21.00
2018-11-21T08:23:11.987Z,21.90
2018-11-21T08:25:59.432Z,21.40
2018-11-21T08:28:41.116Z,21.17
2018-11-21T08:31:22.673Z,21.10
2018-11-21T08:34:04.151Z,22.35
2018-11-21T08:36:45.000Z,22.67
2018-11-21T08:39:26.340Z,22.98
2018-11-21T08:42:07.505Z,23.65
2018-11-21T08:44:48.734Z,23.92
2018-11-21T08:47:30.298Z,23.75
2018-11-21T08:50:11.729Z,23.87
2018-11-21T08:52:53.412Z,23.42
2018-11-21T08:55:35.295Z,22.07
2018-11-21T08:58:16.596Z,22.13
2018-11-21T09:00:57.728Z,21.33
2018-11-21T09:03:39.298Z,21.15
2018-11-21T09:06:20.735Z,21.33
2018-11-21T09:09:01.743Z,20.80
2018-11-21T09:11:42.832Z,21.68
2018-11-21T09:14:23.777Z,22.52
2018-11-21T09:17:05.416Z,22.02
2018-11-21T09:19:46.207Z,23.07
2018-11-21T09:22:27.931Z,23.32
2018-11-21T09:25:09.824Z,23.73
2018-11-21T09:27:51.077Z,23.10
2018-11-21T09:30:32.588Z,22.85
2018-11-21T09:33:13.584Z,22.10
2018-11-21T09:35:54.320Z,21.57
2018-11-21T09:38:35.904Z,22.00
2018-11-21T09:41:17.455Z,21.02
2018-11-21T09:43:58.470Z,21.73
2018-11-21T09:46:39.876Z,21.90
2018-11-21T09:49:21.148Z,22.70
2018-11-21T09:52:02.049Z,24.15
2018-11-21T09:54:43.342Z,23.52
2018-11-21T09:57:24.731Z,23.77
2018-11-21T10:00:06.312Z,24.32
2018-11-21T10:02:48.008Z,23.35
2018-11-21T10:05:28.932Z,23.40
2018-11-21T10:08:09.989Z,23.18
2018-11-21T10:10:51.483Z,22.60
2018-11-21T10:13:32.897Z,23.02
2018-11-21T10:16:14.307Z,21.62
2018-11-21T10:18:57.174Z,22.03
2018-11-21T10:21:38.347Z,21.65
2018-11-21T10:24:19.669Z,22.07
2018-11-21T10:27:01.750Z,22.62
2018-11-21T10:29:30.558Z,22.37
2018-11-21T10:32:00.202Z,22.00
2018-11-21T10:34:29.009Z,21.85
2018-11-21T10:36:57.795Z,22.67
2018-11-21T10:39:26.565Z,21.65
2018-11-21T10:41:55.316Z,23.07
2018-11-21T10:44:24.927Z,23.32
2018-11-21T10:46:53.706Z,20.90
2018-11-21T10:49:22.602Z,20.70
2018-11-21T10:51:51.391Z,19.80
2018-11-21T10:54:20.138Z,20.70
2018-11-21T10:56:49.028Z,19.45
2018-11-21T10:59:17.781Z,20.55
2018-11-21T11:02:04.192Z,19.30
2018-11-21T11:04:54.717Z,19.85
2018-11-21T11:07:45.518Z,19.90
2018-11-21T11:10:32.000Z,19.10
2018-11-21T11:13:15.424Z,19.07
2018-11-21T11:16:06.158Z,20.23
2018-11-21T11:19:02.995Z,19.85
2018-11-21T11:21:51.776Z,20.85
2018-11-21T11:24:36.625Z,20.57
2018-11-21T11:27:23.381Z,23.35
2018-11-21T11:30:10.521Z,22.32
2018-11-21T11:32:58.475Z,20.43
2018-11-21T11:35:44.671Z,20.60
2018-11-21T11:38:44.957Z,20.60
2018-11-21T11:41:41.812Z,21.02
2018-11-21T11:44:28.368Z,20.92
2018-11-21T11:47:24.982Z,21.40
2018-11-21T11:50:05.340Z,19.75
2018-11-21T11:52:56.077Z,19.95
2018-11-21T11:55:44.296Z,19.82
2018-11-21T11:58:32.284Z,20.52
2018-11-21T12:01:18.798Z,20.32
2018-11-21T12:04:15.529Z,19.98
2018-11-21T12:06:55.644Z,21.23
2018-11-21T12:09:55.410Z,20.65
2018-11-21T12:12:42.503Z,20.92
2018-11-21T12:15:23.653Z,23.02
2018-11-21T12:18:09.995Z,24.00
2018-11-21T12:20:56.178Z,20.67
2018-11-21T12:23:42.932Z,20.15
2018-11-21T12:26:23.193Z,20.10
2018-11-21T12:29:02.650Z,21.37
2018-11-21T12:31:49.168Z,21.68
2018-11-21T12:34:39.935Z,20.53
2018-11-21T12:37:33.640Z,20.88
2018-11-21T12:40:24.667Z,19.70
2018-11-21T12:43:15.607Z,20.12
2018-11-21T12:46:12.800Z,20.17
2018-11-21T12:48:57.709Z,19.42
2018-11-21T12:51:43.769Z,20.20
2018-11-21T12:54:44.169Z,19.85
2018-11-21T12:57:21.374Z,21.90
2018-11-21T13:00:11.917Z,21.10
2018-11-21T13:03:18.007Z,21.33
2018-11-21T13:05:59.788Z,21.02
2018-11-21T13:08:50.535Z,21.67
2018-11-21T13:11:41.283Z,21.10
2018-11-21T13:14:29.254Z,21.80
2018-11-21T13:17:12.686Z,21.82
2018-11-21T13:20:03.295Z,22.63
2018-11-21T13:22:43.149Z,21.55
2018-11-21T13:25:29.587Z,21.10
2018-11-21T13:28:35.287Z,26.82
2018-11-21T13:31:23.270Z,21.45
2018-11-21T13:34:11.286Z,21.05
2018-11-21T13:36:50.130Z,21.73
2018-11-21T13:39:40.678Z,23.27
2018-11-21T13:42:30.505Z,23.77
